createdAt,value
2019-04-21T00:00:00.417Z,3.87
2019-04-21T00:02:32.388Z,3.57
2019-04-21T00:05:16.450Z,3.73
2019-04-21T00:07:45.026Z,4.00
2019-04-21T00:10:12.167Z,4.33
2019-04-21T00:12:35.643Z,3.43
2019-04-21T00:15:00.712Z,3.53
2019-04-21T00:17:20.897Z,3.53
2019-04-21T00:20:05.556Z,3.47
2019-04-21T00:22:34.282Z,3.50
2019-04-21T00:25:09.018Z,3.60
2019-04-21T00:27:36.768Z,4.20
2019-04-21T00:30:09.076Z,4.30
2019-04-21T00:32:27.931Z,3.83
2019-04-21T00:34:51.240Z,4.47
2019-04-21T00:37:20.996Z,4.27
2019-04-21T00:42:25.207Z,3.87
2019-04-21T00:44:54.226Z,4.87
2019-04-21T00:47:27.824Z,4.00
2019-04-21T00:49:57.839Z,3.77
2019-04-21T00:52:40.017Z,3.83
2019-04-21T00:55:10.025Z,3.63
2019-04-21T00:57:32.519Z,3.80
2019-04-21T00:59:52.153Z,5.33
2019-04-21T01:02:15.698Z,4.23
2019-04-21T01:04:49.602Z,3.67
2019-04-21T01:07:20.731Z,3.93
2019-04-21T01:09:42.526Z,3.50
2019-04-21T01:12:12.243Z,4.00
2019-04-21T01:14:50.050Z,4.10
2019-04-21T01:17:14.589Z,4.67
2019-04-21T01:19:38.787Z,3.53
2019-04-21T01:21:46.299Z,4.00
2019-04-21T01:24:20.946Z,3.50
2019-04-21T01:26:51.013Z,4.10
2019-04-21T01:29:27.990Z,4.40
2019-04-21T01:32:08.505Z,4.03
2019-04-21T01:34:29.016Z,4.30
2019-04-21T01:36:55.720Z,4.00
2019-04-21T01:39:27.119Z,3.60
2019-04-21T01:42:01.570Z,3.73
2019-04-21T01:44:32.606Z,3.67
2019-04-21T01:46:45.885Z,4.40
2019-04-21T01:49:11.480Z,4.80
2019-04-21T01:51:59.351Z,3.83
2019-04-21T01:54:21.964Z,4.20
2019-04-21T01:57:02.053Z,4.67
2019-04-21T01:59:27.082Z,4.40
2019-04-21T02:02:02.065Z,4.60
2019-04-21T02:04:37.395Z,4.13
2019-04-21T02:06:59.921Z,4.60
2019-04-21T02:09:29.487Z,4.10
2019-04-21T02:12:01.324Z,4.37
2019-04-21T02:14:31.525Z,4.60
2019-04-21T02:16:52.018Z,4.23
2019-04-21T02:19:19.951Z,4.50
2019-04-21T02:21:43.497Z,4.47
2019-04-21T02:24:31.199Z,4.30
2019-04-21T02:26:45.713Z,4.13
2019-04-21T02:29:21.461Z,3.87
2019-04-21T02:31:57.165Z,4.30
2019-04-21T02:34:44.920Z,4.00
2019-04-21T02:41:51.573Z,4.20
2019-04-21T02:49:39.272Z,4.40
2019-04-21T02:51:42.051Z,4.10
2019-04-21T03:01:56.411Z,4.30
2019-04-21T03:04:18.550Z,4.47
2019-04-21T03:12:11.602Z,4.60
2019-04-21T03:14:50.328Z,4.40
2019-04-21T03:17:09.658Z,4.47
2019-04-21T03:22:07.156Z,5.03
2019-04-21T03:24:49.257Z,4.93
2019-04-21T03:27:12.146Z,4.87
2019-04-21T03:29:29.499Z,4.37
2019-04-21T03:32:28.421Z,4.30
2019-04-21T03:34:48.225Z,4.87
2019-04-21T03:39:17.944Z,4.20
2019-04-21T03:42:07.427Z,4.40
2019-04-21T03:44:19.756Z,4.70
2019-04-21T03:46:47.292Z,4.67
2019-04-21T03:49:20.798Z,4.53
2019-04-21T03:54:13.674Z,4.50
2019-04-21T03:59:03.418Z,4.57
2019-04-21T04:01:44.882Z,4.77
2019-04-21T04:04:20.099Z,5.00
2019-04-21T04:06:56.584Z,4.53
2019-04-21T04:11:58.204Z,4.40
2019-04-21T04:14:35.539Z,4.90
2019-04-21T04:16:52.166Z,5.20
2019-04-21T04:19:09.410Z,4.30
2019-04-21T04:21:48.015Z,4.70
2019-04-21T04:24:08.927Z,4.70
2019-04-21T04:31:41.554Z,5.33
2019-04-21T04:34:08.874Z,6.17
2019-04-21T04:36:46.987Z,5.43
2019-04-21T04:39:26.005Z,5.53
2019-04-21T04:42:16.124Z,4.63
2019-04-21T04:49:36.411Z,4.50
2019-04-21T04:52:26.311Z,4.93
2019-04-21T04:54:33.761Z,4.93
2019-04-21T04:56:58.646Z,4.90
2019-04-21T05:01:54.840Z,4.70
2019-04-21T05:04:19.378Z,4.77
2019-04-21T05:06:51.453Z,5.10
2019-04-21T05:09:15.294Z,5.03
2019-04-21T05:11:44.450Z,5.70
2019-04-21T05:14:07.612Z,5.40
2019-04-21T05:19:10.165Z,5.20
2019-04-21T05:21:42.084Z,5.13
2019-04-21T05:23:48.627Z,4.90
2019-04-21T05:26:10.884Z,4.97
2019-04-21T05:28:41.490Z,5.20
2019-04-21T05:31:39.938Z,4.33
2019-04-21T05:34:04.740Z,4.80
2019-04-21T05:36:50.547Z,4.17
2019-04-21T05:39:18.751Z,3.77
2019-04-21T05:41:38.637Z,3.90
2019-04-21T05:44:31.250Z,3.57
2019-04-21T05:47:05.930Z,3.93
2019-04-21T05:49:20.812Z,3.67
2019-04-21T05:51:52.872Z,3.63
2019-04-21T05:54:29.858Z,3.60
2019-04-21T05:56:55.177Z,4.10
2019-04-21T05:59:26.641Z,3.33
2019-04-21T06:01:55.475Z,3.57
2019-04-21T06:04:40.286Z,3.73
2019-04-21T06:07:02.083Z,3.73
2019-04-21T06:09:19.816Z,4.20
2019-04-21T06:11:51.161Z,6.50
2019-04-21T06:14:20.345Z,4.43
2019-04-21T06:16:48.011Z,4.20
2019-04-21T06:19:19.374Z,4.00
2019-04-21T06:21:38.855Z,3.70
2019-04-21T06:24:11.530Z,4.40
2019-04-21T06:29:04.249Z,3.90
2019-04-21T06:32:03.846Z,3.53
2019-04-21T06:34:06.741Z,4.00
2019-04-21T06:36:47.082Z,3.87
2019-04-21T06:39:19.592Z,3.70
2019-04-21T06:41:38.021Z,3.70
2019-04-21T06:44:14.940Z,4.17
2019-04-21T06:46:43.830Z,5.40
2019-04-21T06:49:19.076Z,4.70
2019-04-21T06:51:35.982Z,6.10
2019-04-21T06:54:09.664Z,5.83
2019-04-21T06:56:42.414Z,5.83
2019-04-21T06:59:00.699Z,5.50
2019-04-21T07:01:39.003Z,6.37
2019-04-21T07:04:11.857Z,5.97
2019-04-21T07:06:37.258Z,5.67
2019-04-21T07:09:10.260Z,5.50
2019-04-21T07:11:26.943Z,6.58
2019-04-21T07:14:05.942Z,5.60
2019-04-21T07:16:28.417Z,5.95
2019-04-21T07:19:01.088Z,6.20
2019-04-21T07:21:19.801Z,6.08
2019-04-21T07:23:55.152Z,7.22
2019-04-21T07:26:22.281Z,6.08
2019-04-21T07:28:51.004Z,5.28
2019-04-21T07:31:25.457Z,5.75
2019-04-21T07:34:03.627Z,6.45
2019-04-21T07:36:11.509Z,6.05
2019-04-21T07:38:36.333Z,5.95
2019-04-21T07:40:59.499Z,6.40
2019-04-21T07:43:31.210Z,5.67
2019-04-21T07:45:58.492Z,6.40
2019-04-21T07:48:37.617Z,5.60
2019-04-21T07:51:08.587Z,5.90
2019-04-21T07:53:55.313Z,6.42
2019-04-21T07:56:06.520Z,6.92
2019-04-21T07:58:53.709Z,6.33
2019-04-21T08:01:18.413Z,6.25
2019-04-21T08:03:47.786Z,5.22
2019-04-21T08:06:18.888Z,6.95
2019-04-21T08:08:42.350Z,6.15
2019-04-21T08:11:04.522Z,5.95
2019-04-21T08:13:39.240Z,6.12
2019-04-21T08:16:06.201Z,5.92
2019-04-21T08:18:34.800Z,6.20
2019-04-21T08:21:01.285Z,5.92
2019-04-21T08:23:34.047Z,5.83
2019-04-21T08:28:47.484Z,6.53
2019-04-21T08:31:18.397Z,5.50
2019-04-21T08:33:51.392Z,5.73
2019-04-21T08:36:17.748Z,5.50
2019-04-21T08:38:42.370Z,5.15
2019-04-21T08:41:08.646Z,5.58
2019-04-21T08:46:00.037Z,5.83
2019-04-21T08:48:33.901Z,5.30
2019-04-21T08:51:14.206Z,5.50
2019-04-21T08:53:35.715Z,5.60
2019-04-21T08:58:54.593Z,4.65
2019-04-21T09:01:30.691Z,7.10
2019-04-21T09:04:06.031Z,4.87
2019-04-21T09:06:58.811Z,4.30
2019-04-21T09:09:07.903Z,4.72
2019-04-21T09:11:28.790Z,5.08
2019-04-21T09:14:01.395Z,4.73
2019-04-21T09:16:24.956Z,4.25
2019-04-21T09:18:50.279Z,5.42
2019-04-21T09:21:29.873Z,4.05
2019-04-21T09:23:56.436Z,4.22
2019-04-21T09:26:26.316Z,4.05
2019-04-21T09:28:48.031Z,4.00
2019-04-21T09:31:07.170Z,4.90
2019-04-21T09:33:40.232Z,3.40
2019-04-21T09:36:07.915Z,4.08
2019-04-21T09:38:37.068Z,3.92
2019-04-21T09:41:00.462Z,3.27
2019-04-21T09:43:35.705Z,6.55
2019-04-21T09:45:56.617Z,3.90
2019-04-21T09:48:25.928Z,3.58
2019-04-21T09:50:52.473Z,4.05
2019-04-21T09:53:28.474Z,4.60
2019-04-21T09:55:54.854Z,5.20
2019-04-21T09:58:24.264Z,4.40
2019-04-21T10:00:56.623Z,4.00
2019-04-21T10:03:15.720Z,5.33
2019-04-21T10:05:41.545Z,4.60
2019-04-21T10:08:08.221Z,4.72
2019-04-21T10:10:36.329Z,7.20
2019-04-21T10:13:03.250Z,6.62
2019-04-21T10:15:29.868Z,5.55
2019-04-21T10:17:58.328Z,4.67
2019-04-21T10:20:24.773Z,11.70
2019-04-21T10:22:51.277Z,7.78
2019-04-21T10:25:18.697Z,6.53
2019-04-21T10:27:45.810Z,5.60
2019-04-21T10:30:13.938Z,4.45
2019-04-21T10:32:42.869Z,3.75
2019-04-21T10:35:11.000Z,3.85
2019-04-21T10:37:47.285Z,3.25
2019-04-21T10:40:07.534Z,3.12
2019-04-21T10:42:35.378Z,5.17
2019-04-21T10:45:05.091Z,3.60
2019-04-21T10:47:31.474Z,6.28
2019-04-21T10:49:58.308Z,4.15
2019-04-21T10:52:29.709Z,3.58
2019-04-21T10:55:11.218Z,3.98
2019-04-21T10:57:26.312Z,3.92
2019-04-21T10:59:55.531Z,4.10
2019-04-21T11:02:23.139Z,3.75
2019-04-21T11:04:51.041Z,3.52
2019-04-21T11:07:52.224Z,3.50
2019-04-21T11:10:04.642Z,4.58
2019-04-21T11:12:31.459Z,3.95
2019-04-21T11:14:58.901Z,3.58
2019-04-21T11:17:25.926Z,4.20
2019-04-21T11:19:52.884Z,3.92
2019-04-21T11:22:19.149Z,3.30
2019-04-21T11:24:47.081Z,3.00
2019-04-21T11:27:14.897Z,3.05
2019-04-21T11:29:41.482Z,3.30
2019-04-21T11:32:09.218Z,4.00
2019-04-21T11:34:36.771Z,3.42
2019-04-21T11:37:03.995Z,3.37
2019-04-21T11:39:39.589Z,3.00
2019-04-21T11:42:01.640Z,3.37
2019-04-21T11:44:29.068Z,3.15
2019-04-21T11:46:56.383Z,4.22
2019-04-21T11:49:24.143Z,3.45
2019-04-21T11:51:51.184Z,3.80
2019-04-21T11:54:17.552Z,3.22
2019-04-21T11:56:45.074Z,4.45
2019-04-21T11:59:12.112Z,3.05
2019-04-21T12:01:39.408Z,2.90
2019-04-21T12:04:05.870Z,3.42
2019-04-21T12:06:40.933Z,3.22
2019-04-21T12:09:02.656Z,3.55
2019-04-21T12:11:29.394Z,3.08
2019-04-21T12:13:56.293Z,5.97
2019-04-21T12:16:23.329Z,3.00
2019-04-21T12:18:51.201Z,3.08
2019-04-21T12:21:19.004Z,3.33
2019-04-21T12:23:45.521Z,3.30
2019-04-21T12:26:11.995Z,3.35
2019-04-21T12:28:39.715Z,3.15
2019-04-21T12:31:09.612Z,2.92
2019-04-21T12:33:50.173Z,2.67
2019-04-21T12:36:17.888Z,3.40
2019-04-21T12:38:50.964Z,3.25
2019-04-21T12:41:12.882Z,3.92
2019-04-21T12:43:39.425Z,3.33
2019-04-21T12:46:05.804Z,2.98
2019-04-21T12:48:32.186Z,3.22
2019-04-21T12:50:59.807Z,2.90
2019-04-21T12:53:27.581Z,4.55
2019-04-21T12:55:54.137Z,3.58
2019-04-21T12:58:21.486Z,3.17
2019-04-21T13:00:49.638Z,3.10
2019-04-21T13:03:17.385Z,3.50
2019-04-21T13:05:45.319Z,3.20
2019-04-21T13:08:13.455Z,3.87
2019-04-21T13:10:40.219Z,3.85
2019-04-21T13:13:08.021Z,3.70
2019-04-21T13:15:35.463Z,4.05
2019-04-21T13:18:02.683Z,4.22
2019-04-21T13:20:29.484Z,4.83
2019-04-21T13:22:56.037Z,4.08
2019-04-21T13:25:23.604Z,3.92
2019-04-21T13:27:50.190Z,3.27
2019-04-21T13:30:18.095Z,4.00
2019-04-21T13:32:45.198Z,4.58
2019-04-21T13:35:12.935Z,4.50
2019-04-21T13:37:39.660Z,5.65
2019-04-21T13:40:36.042Z,3.92
2019-04-21T13:42:48.527Z,4.40
2019-04-21T13:45:12.164Z,5.83
2019-04-21T13:47:38.852Z,4.92
2019-04-21T13:50:07.097Z,3.40
2019-04-21T13:52:33.985Z,4.50
2019-04-21T13:55:01.249Z,4.58
2019-04-21T13:57:28.494Z,5.67
2019-04-21T13:59:55.149Z,4.30
2019-04-21T14:02:22.604Z,4.20
2019-04-21T14:04:49.648Z,3.75
2019-04-21T14:07:16.499Z,4.00
2019-04-21T14:09:50.216Z,4.15
2019-04-21T14:12:11.704Z,4.00
2019-04-21T14:14:38.634Z,5.87
2019-04-21T14:17:05.504Z,3.55
2019-04-21T14:19:33.354Z,4.40
2019-04-21T14:22:01.152Z,4.62
2019-04-21T14:24:28.810Z,4.78
2019-04-21T14:26:56.259Z,4.83
2019-04-21T14:29:23.814Z,4.60
2019-04-21T14:31:50.533Z,4.65
2019-04-21T14:34:16.975Z,4.50
2019-04-21T14:36:44.537Z,4.37
2019-04-21T14:39:12.406Z,4.25
2019-04-21T14:41:40.119Z,4.20
2019-04-21T14:44:06.967Z,3.65
2019-04-21T14:46:35.326Z,3.90
2019-04-21T14:49:17.244Z,3.70
2019-04-21T14:51:52.793Z,4.30
2019-04-21T14:54:33.204Z,4.10
2019-04-21T14:57:00.934Z,4.65
2019-04-21T14:59:28.792Z,4.83
2019-04-21T15:01:55.827Z,4.55
2019-04-21T15:04:24.039Z,4.08
2019-04-21T15:06:51.634Z,4.55
2019-04-21T15:09:18.880Z,5.05
2019-04-21T15:11:45.431Z,4.47
2019-04-21T15:14:11.769Z,4.42
2019-04-21T15:16:38.682Z,4.35
2019-04-21T15:19:06.472Z,4.62
2019-04-21T15:21:33.439Z,4.35
2019-04-21T15:24:00.409Z,4.75
2019-04-21T15:26:28.320Z,6.10
2019-04-21T15:28:55.039Z,4.70
2019-04-21T15:31:28.703Z,5.90
2019-04-21T15:33:49.667Z,4.62
2019-04-21T15:36:16.725Z,5.33
2019-04-21T15:38:43.697Z,4.42
2019-04-21T15:41:10.855Z,4.45
2019-04-21T15:43:38.524Z,4.50
2019-04-21T15:46:05.229Z,4.45
2019-04-21T15:48:33.139Z,5.55
2019-04-21T15:51:01.979Z,4.90
2019-04-21T15:53:33.877Z,4.67
2019-04-21T15:56:20.699Z,4.67
2019-04-21T15:59:01.090Z,5.10
2019-04-21T16:01:36.520Z,4.97
2019-04-21T16:04:04.701Z,4.30
2019-04-21T16:06:31.944Z,4.85
2019-04-21T16:09:00.966Z,4.12
2019-04-21T16:11:28.036Z,5.15
2019-04-21T16:13:55.473Z,4.67
2019-04-21T16:16:24.979Z,4.75
2019-04-21T16:18:50.307Z,4.15
2019-04-21T16:21:18.052Z,3.87
2019-04-21T16:23:44.565Z,5.10
2019-04-21T16:26:10.959Z,5.28
2019-04-21T16:28:37.504Z,5.17
2019-04-21T16:31:04.603Z,4.80
2019-04-21T16:33:31.417Z,4.67
2019-04-21T16:35:58.034Z,5.20
2019-04-21T16:38:25.769Z,6.47
2019-04-21T16:40:57.477Z,4.53
2019-04-21T16:43:21.029Z,5.12
2019-04-21T16:45:48.786Z,5.15
2019-04-21T16:48:16.877Z,4.70
2019-04-21T16:50:43.649Z,5.67
2019-04-21T16:53:22.011Z,4.35
2019-04-21T16:55:51.146Z,4.15
2019-04-21T16:58:29.081Z,4.37
2019-04-21T17:01:04.533Z,4.22
2019-04-21T17:03:26.537Z,3.98
2019-04-21T17:05:54.016Z,3.70
2019-04-21T17:08:21.868Z,4.00
2019-04-21T17:11:00.129Z,3.67
2019-04-21T17:13:18.158Z,4.00
2019-04-21T17:15:59.734Z,5.50
2019-04-21T17:18:26.853Z,6.03
2019-04-21T17:20:47.457Z,4.50
2019-04-21T17:23:11.509Z,4.45
2019-04-21T17:25:39.196Z,4.50
2019-04-21T17:28:06.031Z,3.87
2019-04-21T17:30:32.578Z,3.60
2019-04-21T17:32:59.505Z,3.67
2019-04-21T17:35:26.987Z,4.40
2019-04-21T17:37:54.287Z,5.17
2019-04-21T17:40:22.285Z,6.12
2019-04-21T17:42:55.167Z,5.35
2019-04-21T17:45:17.458Z,4.62
2019-04-21T17:47:50.724Z,4.30
2019-04-21T17:50:20.291Z,3.40
2019-04-21T17:52:55.736Z,3.80
2019-04-21T17:55:27.555Z,3.45
2019-04-21T17:58:05.164Z,3.00
2019-04-21T18:00:57.693Z,3.35
2019-04-21T18:03:18.822Z,2.90
2019-04-21T18:05:39.185Z,2.85
2019-04-21T18:08:11.061Z,2.87
2019-04-21T18:10:30.624Z,3.10
2019-04-21T18:12:57.328Z,4.20
2019-04-21T18:15:36.024Z,4.20
2019-04-21T18:17:46.768Z,4.00
2019-04-21T18:20:15.842Z,4.10
2019-04-21T18:22:54.939Z,4.00
2019-04-21T18:25:37.633Z,3.22
2019-04-21T18:27:52.422Z,3.65
2019-04-21T18:30:40.274Z,5.80
2019-04-21T18:33:14.279Z,5.20
2019-04-21T18:35:56.079Z,4.40
2019-04-21T18:38:54.158Z,5.30
2019-04-21T18:40:59.730Z,5.00
2019-04-21T18:43:56.218Z,4.60
2019-04-21T18:46:22.412Z,4.20
2019-04-21T18:48:39.859Z,4.08
2019-04-21T18:51:11.387Z,3.95
2019-04-21T18:53:52.177Z,3.10
2019-04-21T18:56:11.171Z,3.55
2019-04-21T18:58:36.394Z,3.65
2019-04-21T19:01:10.488Z,3.25
2019-04-21T19:03:39.917Z,3.10
2019-04-21T19:06:08.803Z,3.20
2019-04-21T19:08:53.416Z,3.75
2019-04-21T19:11:19.611Z,2.87
2019-04-21T19:14:15.871Z,3.30
2019-04-21T19:16:47.521Z,3.02
2019-04-21T19:19:33.057Z,2.95
2019-04-21T19:21:24.506Z,3.17
2019-04-21T19:24:04.265Z,2.77
2019-04-21T19:26:30.057Z,3.30
2019-04-21T19:29:09.837Z,3.37
2019-04-21T19:31:28.270Z,2.65
2019-04-21T19:33:45.256Z,2.77
2019-04-21T19:36:01.519Z,2.85
2019-04-21T19:38:38.620Z,2.80
2019-04-21T19:41:15.603Z,2.55
2019-04-21T19:43:49.279Z,2.22
2019-04-21T19:46:09.817Z,2.62
2019-04-21T19:48:44.669Z,2.20
2019-04-21T19:51:10.520Z,3.22
2019-04-21T19:53:32.908Z,2.95
2019-04-21T19:55:47.977Z,2.52
2019-04-21T19:58:15.033Z,2.40
2019-04-21T20:00:42.251Z,2.87
2019-04-21T20:03:10.368Z,2.47
2019-04-21T20:05:45.428Z,2.15
2019-04-21T20:08:22.111Z,2.90
2019-04-21T20:10:54.974Z,2.70
2019-04-21T20:13:36.524Z,2.80
2019-04-21T20:15:52.324Z,3.10
2019-04-21T20:18:11.545Z,3.10
2019-04-21T20:20:31.051Z,3.12
2019-04-21T20:22:59.243Z,2.87
2019-04-21T20:25:27.165Z,3.10
2019-04-21T20:28:01.360Z,3.10
2019-04-21T20:30:42.387Z,3.17
2019-04-21T20:33:28.633Z,3.08
2019-04-21T20:35:48.564Z,3.10
2019-04-21T20:38:02.211Z,3.52
2019-04-21T20:40:25.260Z,3.67
2019-04-21T20:43:07.169Z,4.15
2019-04-21T20:45:34.454Z,4.05
2019-04-21T20:47:48.816Z,3.87
2019-04-21T20:50:27.490Z,3.52
2019-04-21T20:52:59.048Z,3.33
2019-04-21T20:55:19.983Z,3.70
2019-04-21T20:57:51.460Z,3.45
2019-04-21T21:00:24.665Z,3.33
2019-04-21T21:02:55.565Z,3.30
2019-04-21T21:05:22.097Z,3.45
2019-04-21T21:08:15.025Z,3.22
2019-04-21T21:10:20.824Z,3.50
2019-04-21T21:15:10.262Z,4.00
2019-04-21T21:20:23.225Z,3.35
2019-04-21T21:22:41.482Z,3.15
2019-04-21T21:25:14.601Z,3.60
2019-04-21T21:27:32.141Z,3.40
2019-04-21T21:30:05.834Z,3.37
2019-04-21T21:32:32.025Z,3.35
2019-04-21T21:35:03.471Z,3.62
2019-04-21T21:40:06.143Z,3.83
2019-04-21T21:42:11.797Z,3.60
2019-04-21T21:44:40.713Z,3.60
2019-04-21T21:47:22.847Z,3.37
2019-04-21T21:49:48.122Z,3.08
2019-04-21T21:52:13.250Z,3.37
2019-04-21T21:54:31.868Z,3.50
2019-04-21T21:56:58.667Z,3.27
2019-04-21T21:59:28.363Z,3.37
2019-04-21T22:01:54.885Z,3.17
2019-04-21T22:04:26.817Z,2.87
2019-04-21T22:06:59.903Z,3.10
2019-04-21T22:09:19.336Z,3.00
2019-04-21T22:11:48.581Z,3.30
2019-04-21T22:14:22.925Z,3.50
2019-04-21T22:16:59.349Z,3.30
2019-04-21T22:19:34.025Z,3.33
2019-04-21T22:21:53.606Z,3.03
2019-04-21T22:24:20.378Z,2.80
2019-04-21T22:26:34.921Z,3.27
2019-04-21T22:29:01.541Z,3.10
2019-04-21T22:31:32.225Z,3.30
2019-04-21T22:34:02.220Z,3.30
2019-04-21T22:36:35.320Z,3.57
2019-04-21T22:39:17.616Z,3.10
2019-04-21T22:41:28.953Z,2.87
2019-04-21T22:43:53.269Z,3.10
2019-04-21T22:46:20.236Z,3.60
2019-04-21T22:48:55.515Z,3.40
2019-04-21T22:51:23.700Z,3.10
2019-04-21T22:53:48.336Z,3.40
2019-04-21T22:56:18.425Z,3.83
2019-04-21T22:58:42.532Z,3.50
2019-04-21T23:01:09.630Z,3.13
2019-04-21T23:03:42.576Z,4.60
2019-04-21T23:06:12.223Z,5.13
2019-04-21T23:08:37.053Z,4.97
2019-04-21T23:11:05.022Z,4.20
2019-04-21T23:13:30.758Z,4.30
2019-04-21T23:16:00.777Z,3.67
2019-04-21T23:18:40.018Z,3.90
2019-04-21T23:21:10.413Z,4.00
2019-04-21T23:23:46.774Z,3.60
2019-04-21T23:26:04.680Z,4.03
2019-04-21T23:28:40.390Z,4.10
2019-04-21T23:31:06.411Z,3.70
2019-04-21T23:33:18.214Z,3.40
2019-04-21T23:35:47.404Z,3.90
2019-04-21T23:38:12.883Z,3.63
2019-04-21T23:40:48.115Z,3.27
2019-04-21T23:43:14.844Z,3.70
2019-04-21T23:45:41.173Z,3.33
2019-04-21T23:48:18.432Z,3.57
2019-04-21T23:50:44.937Z,3.40
2019-04-21T23:53:01.872Z,3.10
2019-04-21T23:55:29.427Z,3.40
2019-04-21T23:58:06.159Z,4.20
